sensor_id;sensor_type;location;lat;lon;timestamp;P1;durP1;ratioP1;P2;durP2;ratioP2
29700;SDS011;57917;51.380;-0.176;2022-09-01T00:00:22;6.40;;;1.27;;
29700;SDS011;57917;51.380;-0.176;2022-09-01T00:06:14;7.63;;;0.90;;
29700;SDS011;57917;51.380;-0.176;2022-09-01T00:12:10;10.85;;;0.95;;
29700;SDS011;57917;51.380;-0.176;2022-09-01T00:17:57;2.72;;;0.70;;
29700;SDS011;57917;51.380;-0.176;2022-09-01T00:23:44;2.95;;;0.80;;
29700;SDS011;57917;51.380;-0.176;2022-09-01T00:29:32;4.35;;;0.82;;
29700;SDS011;57917;51.380;-0.176;2022-09-01T00:35:18;3.75;;;0.93;;
29700;SDS011;57917;51.380;-0.176;2022-09-01T00:41:05;5.47;;;0.82;;
29700;SDS011;57917;51.380;-0.176;2022-09-01T00:46:53;6.32;;;0.90;;
29700;SDS011;57917;51.380;-0.176;2022-09-01T00:52:44;11.95;;;1.30;;
29700;SDS011;57917;51.380;-0.176;2022-09-01T00:58:34;5.83;;;0.97;;
29700;SDS011;57917;51.380;-0.176;2022-09-01T01:04:25;5.03;;;1.53;;
29700;SDS011;57917;51.380;-0.176;2022-09-01T01:10:13;9.57;;;1.05;;
29700;SDS011;57917;51.380;-0.176;2022-09-01T01:16:05;8.95;;;1.30;;
29700;SDS011;57917;51.380;-0.176;2022-09-01T01:21:53;2.67;;;0.80;;
29700;SDS011;57917;51.380;-0.176;2022-09-01T01:28:07;7.32;;;1.33;;
29700;SDS011;57917;51.380;-0.176;2022-09-01T01:33:56;5.88;;;1.08;;
29700;SDS011;57917;51.380;-0.176;2022-09-01T01:39:44;5.72;;;1.40;;
29700;SDS011;57917;51.380;-0.176;2022-09-01T01:45:34;9.38;;;0.82;;
29700;SDS011;57917;51.380;-0.176;2022-09-01T01:51:22;9.48;;;1.10;;
29700;SDS011;57917;51.380;-0.176;2022-09-01T01:57:12;9.05;;;1.30;;
29700;SDS011;57917;51.380;-0.176;2022-09-01T02:03:03;5.35;;;0.93;;
29700;SDS011;57917;51.380;-0.176;2022-09-01T02:08:51;6.13;;;0.95;;
29700;SDS011;57917;51.380;-0.176;2022-09-01T02:14:43;3.88;;;0.70;;
29700;SDS011;57917;51.380;-0.176;2022-09-01T02:20:29;11.82;;;1.40;;
29700;SDS011;57917;51.380;-0.176;2022-09-01T02:26:19;8.93;;;1.08;;
29700;SDS011;57917;51.380;-0.176;2022-09-01T02:32:10;5.38;;;1.05;;
29700;SDS011;57917;51.380;-0.176;2022-09-01T02:37:57;8.90;;;1.20;;
29700;SDS011;57917;51.380;-0.176;2022-09-01T02:43:48;2.95;;;1.08;;
29700;SDS011;57917;51.380;-0.176;2022-09-01T02:49:36;3.85;;;0.75;;
29700;SDS011;57917;51.380;-0.176;2022-09-01T02:55:24;2.75;;;1.00;;
29700;SDS011;57917;51.380;-0.176;2022-09-01T03:01:15;6.25;;;1.35;;
29700;SDS011;57917;51.380;-0.176;2022-09-01T03:07:07;9.82;;;1.38;;
29700;SDS011;57917;51.380;-0.176;2022-09-01T03:12:54;6.45;;;1.45;;
29700;SDS011;57917;51.380;-0.176;2022-09-01T03:18:41;7.30;;;1.20;;
29700;SDS011;57917;51.380;-0.176;2022-09-01T03:24:29;8.88;;;1.10;;
29700;SDS011;57917;51.380;-0.176;2022-09-01T03:30:16;13.85;;;1.10;;
29700;SDS011;57917;51.380;-0.176;2022-09-01T03:36:05;10.13;;;1.30;;
29700;SDS011;57917;51.380;-0.176;2022-09-01T03:42:01;9.93;;;1.20;;
29700;SDS011;57917;51.380;-0.176;2022-09-01T03:47:48;6.95;;;1.48;;
29700;SDS011;57917;51.380;-0.176;2022-09-01T03:53:36;5.72;;;1.33;;
29700;SDS011;57917;51.380;-0.176;2022-09-01T03:59:24;7.05;;;1.35;;
29700;SDS011;57917;51.380;-0.176;2022-09-01T04:05:11;9.52;;;2.22;;
29700;SDS011;57917;51.380;-0.176;2022-09-01T04:11:02;6.82;;;1.40;;
29700;SDS011;57917;51.380;-0.176;2022-09-01T04:16:55;4.93;;;1.20;;
29700;SDS011;57917;51.380;-0.176;2022-09-01T04:23:00;6.75;;;1.42;;
29700;SDS011;57917;51.380;-0.176;2022-09-01T04:28:57;5.35;;;1.20;;
29700;SDS011;57917;51.380;-0.176;2022-09-01T04:34:44;18.02;;;1.90;;
29700;SDS011;57917;51.380;-0.176;2022-09-01T04:40:39;6.07;;;1.50;;
29700;SDS011;57917;51.380;-0.176;2022-09-01T04:46:27;5.93;;;1.50;;
29700;SDS011;57917;51.380;-0.176;2022-09-01T04:52:16;9.43;;;1.67;;
29700;SDS011;57917;51.380;-0.176;2022-09-01T04:58:03;8.95;;;1.48;;
29700;SDS011;57917;51.380;-0.176;2022-09-01T05:03:55;8.98;;;1.85;;
29700;SDS011;57917;51.380;-0.176;2022-09-01T05:09:57;9.63;;;1.67;;
29700;SDS011;57917;51.380;-0.176;2022-09-01T05:16:06;8.05;;;1.50;;
29700;SDS011;57917;51.380;-0.176;2022-09-01T05:22:12;5.07;;;1.20;;
29700;SDS011;57917;51.380;-0.176;2022-09-01T05:28:02;14.55;;;2.15;;
29700;SDS011;57917;51.380;-0.176;2022-09-01T05:33:50;15.32;;;2.00;;
29700;SDS011;57917;51.380;-0.176;2022-09-01T05:39:38;10.55;;;1.65;;
29700;SDS011;57917;51.380;-0.176;2022-09-01T05:45:25;11.98;;;1.80;;
29700;SDS011;57917;51.380;-0.176;2022-09-01T05:51:12;8.00;;;1.73;;
29700;SDS011;57917;51.380;-0.176;2022-09-01T05:57:23;8.43;;;2.20;;
29700;SDS011;57917;51.380;-0.176;2022-09-01T06:03:20;7.85;;;1.52;;
29700;SDS011;57917;51.380;-0.176;2022-09-01T06:09:09;11.63;;;1.95;;
29700;SDS011;57917;51.380;-0.176;2022-09-01T06:14:57;10.35;;;1.67;;
29700;SDS011;57917;51.380;-0.176;2022-09-01T06:20:45;7.72;;;1.75;;
29700;SDS011;57917;51.380;-0.176;2022-09-01T06:26:35;12.88;;;1.75;;
29700;SDS011;57917;51.380;-0.176;2022-09-01T06:32:25;6.13;;;1.37;;
29700;SDS011;57917;51.380;-0.176;2022-09-01T06:38:14;6.88;;;1.33;;
29700;SDS011;57917;51.380;-0.176;2022-09-01T06:44:05;11.80;;;1.75;;
29700;SDS011;57917;51.380;-0.176;2022-09-01T06:50:04;7.32;;;0.98;;
29700;SDS011;57917;51.380;-0.176;2022-09-01T06:55:55;5.22;;;1.08;;
29700;SDS011;57917;51.380;-0.176;2022-09-01T07:01:43;9.32;;;1.65;;
29700;SDS011;57917;51.380;-0.176;2022-09-01T07:07:37;6.45;;;1.05;;
29700;SDS011;57917;51.380;-0.176;2022-09-01T07:14:04;8.63;;;1.52;;
29700;SDS011;57917;51.380;-0.176;2022-09-01T07:20:08;3.55;;;1.08;;
29700;SDS011;57917;51.380;-0.176;2022-09-01T07:26:19;6.57;;;1.23;;
29700;SDS011;57917;51.380;-0.176;2022-09-01T07:32:13;8.43;;;1.30;;
29700;SDS011;57917;51.380;-0.176;2022-09-01T07:38:21;7.07;;;1.33;;
29700;SDS011;57917;51.380;-0.176;2022-09-01T07:44:30;10.95;;;1.17;;
29700;SDS011;57917;51.380;-0.176;2022-09-01T07:50:47;12.50;;;1.42;;
29700;SDS011;57917;51.380;-0.176;2022-09-01T07:56:59;5.15;;;1.05;;
29700;SDS011;57917;51.380;-0.176;2022-09-01T08:02:49;6.78;;;1.20;;
29700;SDS011;57917;51.380;-0.176;2022-09-01T08:08:42;3.67;;;1.00;;
29700;SDS011;57917;51.380;-0.176;2022-09-01T08:14:30;3.40;;;0.88;;
29700;SDS011;57917;51.380;-0.176;2022-09-01T08:20:19;7.35;;;0.90;;
29700;SDS011;57917;51.380;-0.176;2022-09-01T08:26:27;6.25;;;1.48;;
29700;SDS011;57917;51.380;-0.176;2022-09-01T08:32:29;6.60;;;1.50;;
29700;SDS011;57917;51.380;-0.176;2022-09-01T08:38:18;3.50;;;0.73;;
29700;SDS011;57917;51.380;-0.176;2022-09-01T08:44:12;10.63;;;1.25;;
29700;SDS011;57917;51.380;-0.176;2022-09-01T08:50:30;2.13;;;0.82;;
29700;SDS011;57917;51.380;-0.176;2022-09-01T08:57:07;9.10;;;1.30;;
29700;SDS011;57917;51.380;-0.176;2022-09-01T09:10:13;2.25;;;0.70;;
29700;SDS011;57917;51.380;-0.176;2022-09-01T09:16:34;2.50;;;1.13;;
29700;SDS011;57917;51.380;-0.176;2022-09-01T09:22:38;9.63;;;1.15;;
29700;SDS011;57917;51.380;-0.176;2022-09-01T09:28:27;10.95;;;1.17;;
29700;SDS011;57917;51.380;-0.176;2022-09-01T09:40:23;4.68;;;1.10;;
29700;SDS011;57917;51.380;-0.176;2022-09-01T09:46:20;3.30;;;1.20;;
29700;SDS011;57917;51.380;-0.176;2022-09-01T09:52:13;4.32;;;1.17;;
29700;SDS011;57917;51.380;-0.176;2022-09-01T09:58:08;6.18;;;1.13;;
29700;SDS011;57917;51.380;-0.176;2022-09-01T10:03:58;11.20;;;1.83;;
29700;SDS011;57917;51.380;-0.176;2022-09-01T10:09:47;6.68;;;1.05;;
29700;SDS011;57917;51.380;-0.176;2022-09-01T10:15:36;6.00;;;1.10;;
29700;SDS011;57917;51.380;-0.176;2022-09-01T10:21:27;6.22;;;1.20;;
29700;SDS011;57917;51.380;-0.176;2022-09-01T10:27:20;7.13;;;1.33;;
29700;SDS011;57917;51.380;-0.176;2022-09-01T10:33:09;4.82;;;1.10;;
29700;SDS011;57917;51.380;-0.176;2022-09-01T10:39:10;3.25;;;1.23;;
29700;SDS011;57917;51.380;-0.176;2022-09-01T10:45:00;4.57;;;0.80;;
29700;SDS011;57917;51.380;-0.176;2022-09-01T10:50:52;2.45;;;0.98;;
29700;SDS011;57917;51.380;-0.176;2022-09-01T10:56:50;2.42;;;0.75;;
29700;SDS011;57917;51.380;-0.176;2022-09-01T11:02:39;8.00;;;0.57;;
29700;SDS011;57917;51.380;-0.176;2022-09-01T11:08:42;2.00;;;0.70;;
29700;SDS011;57917;51.380;-0.176;2022-09-01T11:14:46;5.18;;;0.63;;
29700;SDS011;57917;51.380;-0.176;2022-09-01T11:20:50;9.98;;;1.08;;
29700;SDS011;57917;51.380;-0.176;2022-09-01T11:26:44;11.27;;;1.00;;
29700;SDS011;57917;51.380;-0.176;2022-09-01T11:32:35;1.45;;;0.60;;
29700;SDS011;57917;51.380;-0.176;2022-09-01T11:38:23;6.13;;;0.65;;
29700;SDS011;57917;51.380;-0.176;2022-09-01T11:44:22;6.80;;;0.98;;
29700;SDS011;57917;51.380;-0.176;2022-09-01T11:56:24;2.67;;;0.82;;
29700;SDS011;57917;51.380;-0.176;2022-09-01T12:08:17;4.95;;;1.10;;
29700;SDS011;57917;51.380;-0.176;2022-09-01T12:14:18;3.65;;;0.90;;
29700;SDS011;57917;51.380;-0.176;2022-09-01T12:20:25;7.10;;;1.00;;
29700;SDS011;57917;51.380;-0.176;2022-09-01T12:26:22;4.25;;;0.80;;
29700;SDS011;57917;51.380;-0.176;2022-09-01T12:32:15;4.90;;;1.48;;
29700;SDS011;57917;51.380;-0.176;2022-09-01T12:50:36;2.90;;;1.05;;
29700;SDS011;57917;51.380;-0.176;2022-09-01T13:02:25;2.83;;;1.13;;
29700;SDS011;57917;51.380;-0.176;2022-09-01T13:08:15;6.35;;;0.90;;
29700;SDS011;57917;51.380;-0.176;2022-09-01T13:14:04;10.95;;;1.10;;
29700;SDS011;57917;51.380;-0.176;2022-09-01T13:19:51;4.38;;;1.15;;
29700;SDS011;57917;51.380;-0.176;2022-09-01T13:25:40;5.82;;;1.35;;
29700;SDS011;57917;51.380;-0.176;2022-09-01T13:31:32;2.78;;;1.13;;
29700;SDS011;57917;51.380;-0.176;2022-09-01T13:37:21;2.63;;;1.00;;
29700;SDS011;57917;51.380;-0.176;2022-09-01T13:43:08;4.55;;;1.13;;
29700;SDS011;57917;51.380;-0.176;2022-09-01T13:48:55;3.00;;;0.95;;
29700;SDS011;57917;51.380;-0.176;2022-09-01T13:55:04;3.80;;;1.55;;
29700;SDS011;57917;51.380;-0.176;2022-09-01T14:01:49;3.42;;;1.55;;
29700;SDS011;57917;51.380;-0.176;2022-09-01T14:07:38;2.03;;;1.65;;
29700;SDS011;57917;51.380;-0.176;2022-09-01T14:13:26;6.35;;;2.40;;
29700;SDS011;57917;51.380;-0.176;2022-09-01T14:19:13;1.48;;;1.30;;
29700;SDS011;57917;51.380;-0.176;2022-09-01T14:25:02;9.48;;;2.10;;
29700;SDS011;57917;51.380;-0.176;2022-09-01T14:30:53;1.50;;;1.07;;
29700;SDS011;57917;51.380;-0.176;2022-09-01T14:36:46;3.63;;;1.50;;
29700;SDS011;57917;51.380;-0.176;2022-09-01T14:42:48;7.55;;;1.52;;
29700;SDS011;57917;51.380;-0.176;2022-09-01T14:48:38;2.70;;;1.90;;
29700;SDS011;57917;51.380;-0.176;2022-09-01T14:54:28;2.15;;;1.40;;
29700;SDS011;57917;51.380;-0.176;2022-09-01T15:06:35;3.50;;;1.70;;
29700;SDS011;57917;51.380;-0.176;2022-09-01T15:12:22;1.95;;;1.33;;
29700;SDS011;57917;51.380;-0.176;2022-09-01T15:18:13;2.38;;;1.50;;
29700;SDS011;57917;51.380;-0.176;2022-09-01T15:24:12;4.40;;;1.58;;
29700;SDS011;57917;51.380;-0.176;2022-09-01T15:30:00;3.25;;;1.48;;
29700;SDS011;57917;51.380;-0.176;2022-09-01T15:35:49;11.65;;;1.90;;
29700;SDS011;57917;51.380;-0.176;2022-09-01T15:41:39;5.18;;;1.83;;
29700;SDS011;57917;51.380;-0.176;2022-09-01T15:47:29;8.18;;;1.70;;
29700;SDS011;57917;51.380;-0.176;2022-09-01T15:53:19;4.88;;;1.92;;
29700;SDS011;57917;51.380;-0.176;2022-09-01T15:59:06;17.67;;;2.15;;
29700;SDS011;57917;51.380;-0.176;2022-09-01T16:04:54;2.72;;;1.88;;
29700;SDS011;57917;51.380;-0.176;2022-09-01T16:10:42;4.40;;;2.00;;
29700;SDS011;57917;51.380;-0.176;2022-09-01T16:16:43;3.25;;;1.55;;
29700;SDS011;57917;51.380;-0.176;2022-09-01T16:22:41;4.20;;;1.60;;
29700;SDS011;57917;51.380;-0.176;2022-09-01T16:28:46;5.75;;;2.25;;
29700;SDS011;57917;51.380;-0.176;2022-09-01T16:34:36;12.57;;;2.42;;
29700;SDS011;57917;51.380;-0.176;2022-09-01T16:40:49;6.47;;;2.05;;
29700;SDS011;57917;51.380;-0.176;2022-09-01T17:05:00;7.68;;;2.50;;
29700;SDS011;57917;51.380;-0.176;2022-09-01T17:16:48;2.65;;;1.90;;
29700;SDS011;57917;51.380;-0.176;2022-09-01T17:22:43;3.70;;;1.90;;
29700;SDS011;57917;51.380;-0.176;2022-09-01T17:28:45;6.65;;;2.30;;
29700;SDS011;57917;51.380;-0.176;2022-09-01T17:48:45;4.13;;;1.70;;
29700;SDS011;57917;51.380;-0.176;2022-09-01T18:00:47;2.95;;;1.88;;
29700;SDS011;57917;51.380;-0.176;2022-09-01T18:06:47;4.28;;;1.98;;
29700;SDS011;57917;51.380;-0.176;2022-09-01T18:12:39;6.60;;;1.92;;
29700;SDS011;57917;51.380;-0.176;2022-09-01T18:18:39;4.32;;;2.35;;
29700;SDS011;57917;51.380;-0.176;2022-09-01T18:24:34;11.10;;;2.65;;
29700;SDS011;57917;51.380;-0.176;2022-09-01T18:30:42;7.25;;;3.13;;
29700;SDS011;57917;51.380;-0.176;2022-09-01T18:36:49;12.02;;;3.40;;
29700;SDS011;57917;51.380;-0.176;2022-09-01T19:01:03;9.40;;;3.13;;
29700;SDS011;57917;51.380;-0.176;2022-09-01T19:13:12;4.68;;;3.25;;
29700;SDS011;57917;51.380;-0.176;2022-09-01T19:20:50;9.65;;;3.53;;
29700;SDS011;57917;51.380;-0.176;2022-09-01T19:40:07;12.65;;;4.13;;
29700;SDS011;57917;51.380;-0.176;2022-09-01T19:52:22;12.50;;;4.07;;
29700;SDS011;57917;51.380;-0.176;2022-09-01T19:58:18;11.45;;;3.88;;
29700;SDS011;57917;51.380;-0.176;2022-09-01T20:04:20;5.57;;;3.55;;
29700;SDS011;57917;51.380;-0.176;2022-09-01T20:10:32;7.60;;;2.97;;
29700;SDS011;57917;51.380;-0.176;2022-09-01T20:16:43;10.18;;;3.50;;
29700;SDS011;57917;51.380;-0.176;2022-09-01T20:48:49;7.13;;;3.40;;
29700;SDS011;57917;51.380;-0.176;2022-09-01T21:00:26;14.27;;;3.42;;
29700;SDS011;57917;51.380;-0.176;2022-09-01T21:06:22;5.30;;;2.95;;
29700;SDS011;57917;51.380;-0.176;2022-09-01T21:12:28;11.63;;;3.80;;
29700;SDS011;57917;51.380;-0.176;2022-09-01T21:24:17;10.63;;;3.92;;
29700;SDS011;57917;51.380;-0.176;2022-09-01T21:30:06;11.02;;;3.40;;
29700;SDS011;57917;51.380;-0.176;2022-09-01T21:35:55;8.82;;;3.80;;
29700;SDS011;57917;51.380;-0.176;2022-09-01T21:41:51;9.60;;;3.65;;
29700;SDS011;57917;51.380;-0.176;2022-09-01T21:47:43;8.05;;;3.85;;
29700;SDS011;57917;51.380;-0.176;2022-09-01T21:53:32;10.90;;;4.25;;
29700;SDS011;57917;51.380;-0.176;2022-09-01T21:59:19;9.70;;;4.38;;
29700;SDS011;57917;51.380;-0.176;2022-09-01T22:05:06;9.57;;;4.43;;
29700;SDS011;57917;51.380;-0.176;2022-09-01T22:10:53;10.15;;;4.60;;
29700;SDS011;57917;51.380;-0.176;2022-09-01T22:16:41;14.88;;;5.18;;
29700;SDS011;57917;51.380;-0.176;2022-09-01T22:22:30;10.70;;;5.22;;
29700;SDS011;57917;51.380;-0.176;2022-09-01T22:28:17;14.20;;;5.82;;
29700;SDS011;57917;51.380;-0.176;2022-09-01T22:34:04;12.65;;;5.60;;
29700;SDS011;57917;51.380;-0.176;2022-09-01T22:39:52;9.13;;;5.97;;
29700;SDS011;57917;51.380;-0.176;2022-09-01T22:45:40;18.65;;;7.10;;
29700;SDS011;57917;51.380;-0.176;2022-09-01T22:51:27;16.60;;;7.40;;
29700;SDS011;57917;51.380;-0.176;2022-09-01T22:57:15;11.88;;;5.90;;
29700;SDS011;57917;51.380;-0.176;2022-09-01T23:03:02;9.45;;;5.18;;
29700;SDS011;57917;51.380;-0.176;2022-09-01T23:16:32;13.65;;;4.00;;
29700;SDS011;57917;51.380;-0.176;2022-09-01T23:22:22;14.35;;;4.50;;
29700;SDS011;57917;51.380;-0.176;2022-09-01T23:28:10;14.50;;;4.55;;
29700;SDS011;57917;51.380;-0.176;2022-09-01T23:33:59;11.60;;;3.60;;
29700;SDS011;57917;51.380;-0.176;2022-09-01T23:39:46;7.05;;;3.20;;
29700;SDS011;57917;51.380;-0.176;2022-09-01T23:45:58;11.88;;;3.42;;
29700;SDS011;57917;51.380;-0.176;2022-09-01T23:59:19;12.83;;;2.90;;
